createdAt,value
2023-04-19T00:00:24.623Z,62.51
2023-04-19T00:03:32.508Z,59.63
2023-04-19T00:06:41.655Z,59.65
2023-04-19T00:09:49.144Z,60.68
2023-04-19T00:13:00.255Z,62.77
2023-04-19T00:16:07.419Z,61.77
2023-04-19T00:19:16.866Z,63.10
2023-04-19T00:22:24.574Z,63.13
2023-04-19T00:25:32.993Z,62.82
2023-04-19T00:28:41.506Z,63.89
2023-04-19T00:31:49.126Z,64.19
2023-04-19T00:34:56.760Z,64.84
2023-04-19T00:38:05.843Z,65.25
2023-04-19T00:41:13.334Z,67.42
2023-04-19T00:44:21.078Z,66.52
2023-04-19T00:47:29.827Z,67.35
2023-04-19T00:50:37.699Z,67.48
2023-04-19T00:53:45.220Z,69.54
2023-04-19T00:56:52.670Z,68.96
2023-04-19T01:00:02.165Z,69.27
2023-04-19T01:03:09.406Z,71.26
2023-04-19T01:06:17.323Z,69.09
2023-04-19T01:09:25.829Z,70.75
2023-04-19T01:12:33.836Z,70.33
2023-04-19T01:15:41.544Z,70.67
2023-04-19T01:18:50.610Z,72.02
2023-04-19T01:21:58.070Z,71.40
2023-04-19T01:25:06.004Z,71.95
2023-04-19T01:28:14.577Z,72.26
2023-04-19T01:31:22.601Z,72.47
2023-04-19T01:34:29.733Z,72.26
2023-04-19T01:37:37.758Z,72.39
2023-04-19T01:40:46.795Z,73.94
2023-04-19T01:43:54.342Z,74.15
2023-04-19T01:47:02.207Z,74.57
2023-04-19T01:50:11.495Z,75.22
2023-04-19T01:53:18.643Z,76.05
2023-04-19T01:56:26.087Z,76.78
2023-04-19T01:59:34.685Z,77.33
2023-04-19T02:02:42.935Z,78.47
2023-04-19T02:05:50.500Z,79.13
2023-04-19T02:08:59.560Z,77.78
2023-04-19T02:12:07.102Z,78.19
2023-04-19T02:15:14.634Z,79.16
2023-04-19T02:18:23.610Z,79.47
2023-04-19T02:21:31.365Z,79.99
2023-04-19T02:24:38.475Z,80.23
2023-04-19T02:27:46.755Z,80.65
2023-04-19T02:30:55.528Z,81.06
2023-04-19T02:34:03.066Z,81.30
2023-04-19T02:37:10.559Z,81.82
2023-04-19T02:40:19.541Z,81.30
2023-04-19T02:43:27.136Z,82.55
2023-04-19T02:46:35.099Z,81.41
2023-04-19T02:49:43.576Z,82.34
2023-04-19T02:52:52.507Z,81.66
2023-04-19T02:56:00.159Z,82.90
2023-04-19T02:59:09.130Z,82.34
2023-04-19T03:02:16.684Z,82.65
2023-04-19T03:05:24.174Z,83.01
2023-04-19T03:08:31.701Z,83.32
2023-04-19T03:11:40.959Z,84.05
2023-04-19T03:14:47.995Z,84.60
2023-04-19T03:17:55.988Z,84.39
2023-04-19T03:21:04.481Z,83.73
2023-04-19T03:24:12.941Z,83.22
2023-04-19T03:27:20.498Z,83.53
2023-04-19T03:30:29.658Z,83.36
2023-04-19T03:33:37.360Z,83.77
2023-04-19T03:36:45.355Z,84.12
2023-04-19T03:39:53.906Z,84.53
2023-04-19T03:43:02.909Z,84.74
2023-04-19T03:46:10.116Z,85.05
2023-04-19T03:49:17.954Z,85.16
2023-04-19T03:52:26.742Z,85.93
2023-04-19T03:55:34.176Z,86.34
2023-04-19T03:58:42.794Z,86.44
2023-04-19T04:01:51.798Z,86.34
2023-04-19T04:04:59.386Z,86.13
2023-04-19T04:08:07.600Z,85.68
2023-04-19T04:11:16.121Z,85.78
2023-04-19T04:14:24.101Z,86.09
2023-04-19T04:17:31.610Z,85.47
2023-04-19T04:20:40.453Z,85.68
2023-04-19T04:23:48.818Z,85.88
2023-04-19T04:26:56.583Z,85.78
2023-04-19T04:30:05.352Z,85.78
2023-04-19T04:33:13.257Z,85.22
2023-04-19T04:36:20.404Z,84.91
2023-04-19T04:39:28.405Z,84.70
2023-04-19T04:42:37.382Z,84.56
2023-04-19T04:45:44.937Z,84.36
2023-04-19T04:48:52.204Z,84.36
2023-04-19T04:52:01.020Z,84.73
2023-04-19T04:55:08.549Z,84.42
2023-04-19T04:58:16.856Z,84.11
2023-04-19T05:01:26.518Z,84.28
2023-04-19T05:04:34.565Z,83.97
2023-04-19T05:07:41.435Z,82.58
2023-04-19T05:10:50.775Z,82.37
2023-04-19T05:13:58.449Z,82.34
2023-04-19T05:17:07.194Z,81.30
2023-04-19T05:20:14.893Z,81.20
2023-04-19T05:23:24.063Z,80.68
2023-04-19T05:26:31.097Z,81.57
2023-04-19T05:29:39.196Z,80.43
2023-04-19T05:32:47.755Z,80.54
2023-04-19T05:35:55.507Z,80.02
2023-04-19T05:39:03.011Z,80.12
2023-04-19T05:42:12.070Z,79.19
2023-04-19T05:45:19.539Z,79.77
2023-04-19T05:48:27.696Z,79.47
2023-04-19T05:51:36.256Z,79.94
2023-04-19T05:54:44.125Z,79.74
2023-04-19T05:57:51.345Z,79.12
2023-04-19T06:00:59.532Z,78.88
2023-04-19T06:04:08.893Z,78.36
2023-04-19T06:07:30.255Z,78.56
2023-04-19T06:10:20.905Z,77.39
2023-04-19T06:13:30.266Z,77.39
2023-04-19T06:16:38.235Z,76.56
2023-04-19T06:19:45.305Z,76.53
2023-04-19T06:22:54.410Z,75.09
2023-04-19T06:26:02.259Z,75.57
2023-04-19T06:29:09.461Z,75.87
2023-04-19T06:32:18.514Z,75.32
2023-04-19T06:35:25.892Z,73.98
2023-04-19T06:38:33.262Z,74.40
2023-04-19T06:41:42.493Z,73.85
2023-04-19T06:44:50.001Z,73.64
2023-04-19T06:47:57.512Z,71.47
2023-04-19T06:51:04.919Z,72.27
2023-04-19T06:54:13.831Z,70.72
2023-04-19T06:57:21.222Z,71.55
2023-04-19T07:00:29.073Z,72.54
2023-04-19T07:03:38.058Z,71.92
2023-04-19T07:06:45.431Z,71.72
2023-04-19T07:09:53.018Z,70.65
2023-04-19T07:13:02.053Z,70.34
2023-04-19T07:16:09.499Z,71.06
2023-04-19T07:19:17.049Z,69.28
2023-04-19T07:22:26.206Z,68.32
2023-04-19T07:25:33.516Z,67.71
2023-04-19T07:28:41.000Z,67.91
2023-04-19T07:31:48.886Z,66.88
2023-04-19T07:34:57.790Z,65.86
2023-04-19T07:38:04.854Z,66.24
2023-04-19T07:41:12.806Z,65.48
2023-04-19T07:44:21.535Z,64.73
2023-04-19T07:47:28.765Z,62.48
2023-04-19T07:50:36.641Z,61.52
2023-04-19T07:53:45.193Z,61.08
2023-04-19T07:56:52.983Z,59.54
2023-04-19T08:00:00.922Z,60.36
2023-04-19T08:03:09.671Z,58.00
2023-04-19T08:06:17.789Z,57.56
2023-04-19T08:09:25.412Z,56.95
2023-04-19T08:12:40.665Z,58.67
2023-04-19T08:16:20.205Z,55.38
2023-04-19T08:18:43.440Z,56.30
2023-04-19T08:21:50.924Z,56.07
2023-04-19T08:25:00.050Z,55.66
2023-04-19T08:28:07.416Z,54.85
2023-04-19T08:31:15.090Z,54.21
2023-04-19T08:34:23.789Z,54.00
2023-04-19T08:37:31.512Z,52.15
2023-04-19T08:40:39.269Z,53.46
2023-04-19T08:43:47.796Z,53.67
2023-04-19T08:46:55.433Z,53.05
2023-04-19T08:56:27.615Z,50.96
2023-04-19T08:59:18.762Z,51.24
2023-04-19T09:02:27.113Z,49.91
2023-04-19T09:05:36.562Z,48.91
2023-04-19T09:08:44.328Z,50.22
2023-04-19T09:11:51.923Z,47.45
2023-04-19T09:15:02.583Z,47.76
2023-04-19T09:18:10.695Z,50.20
2023-04-19T09:21:18.100Z,45.67
2023-04-19T09:24:26.680Z,46.08
2023-04-19T09:27:34.596Z,44.14
2023-04-19T09:30:55.117Z,46.00
2023-04-19T09:33:46.434Z,46.39
2023-04-19T09:37:08.352Z,46.39
2023-04-19T09:40:00.307Z,50.56
2023-04-19T09:43:32.960Z,46.37
2023-04-19T09:46:14.151Z,48.08
2023-04-19T09:49:33.532Z,45.86
2023-04-19T09:52:26.157Z,48.00
2023-04-19T09:55:42.343Z,48.41
2023-04-19T09:58:52.508Z,46.66
2023-04-19T10:01:44.410Z,47.16
2023-04-19T10:07:58.533Z,45.22
2023-04-19T10:10:56.083Z,45.81
2023-04-19T10:14:03.754Z,46.92
2023-04-19T10:17:13.142Z,45.67
2023-04-19T10:20:20.218Z,46.56
2023-04-19T10:23:28.364Z,46.36
2023-04-19T10:26:37.287Z,43.10
2023-04-19T10:29:44.899Z,42.06
2023-04-19T10:32:52.851Z,40.94
2023-04-19T10:36:02.162Z,37.99
2023-04-19T10:39:09.488Z,37.88
2023-04-19T10:42:16.976Z,37.38
2023-04-19T10:45:26.209Z,36.36
2023-04-19T10:48:33.770Z,36.56
2023-04-19T10:51:41.076Z,35.03
2023-04-19T10:54:48.798Z,35.64
2023-04-19T10:57:57.377Z,36.34
2023-04-19T11:01:05.408Z,36.44
2023-04-19T11:04:13.373Z,35.82
2023-04-19T11:07:22.044Z,37.97
2023-04-19T11:10:29.804Z,37.77
2023-04-19T11:13:37.220Z,35.41
2023-04-19T11:16:46.796Z,36.63
2023-04-19T11:19:54.443Z,38.14
2023-04-19T11:23:01.760Z,35.80
2023-04-19T11:26:10.970Z,37.85
2023-04-19T11:29:18.153Z,37.12
2023-04-19T11:32:25.759Z,37.12
2023-04-19T11:35:33.742Z,37.73
2023-04-19T11:38:42.247Z,37.84
2023-04-19T11:41:49.770Z,38.45
2023-04-19T11:44:57.555Z,37.92
2023-04-19T11:48:06.244Z,38.20
2023-04-19T11:51:14.106Z,36.08
2023-04-19T11:54:21.558Z,35.99
2023-04-19T11:57:30.347Z,36.99
2023-04-19T12:00:38.472Z,36.80
2023-04-19T12:03:46.450Z,36.68
2023-04-19T12:06:55.608Z,36.58
2023-04-19T12:10:03.469Z,36.38
2023-04-19T12:13:10.950Z,37.68
2023-04-19T12:16:19.474Z,36.97
2023-04-19T12:19:27.183Z,37.96
2023-04-19T12:22:34.954Z,35.83
2023-04-19T12:25:42.610Z,38.90
2023-04-19T12:28:51.437Z,39.20
2023-04-19T12:31:59.275Z,37.58
2023-04-19T12:35:06.585Z,38.35
2023-04-19T12:38:15.046Z,38.95
2023-04-19T12:41:23.014Z,37.22
2023-04-19T12:44:30.678Z,36.91
2023-04-19T12:47:39.291Z,36.54
2023-04-19T12:50:46.970Z,39.18
2023-04-19T12:53:54.616Z,39.69
2023-04-19T12:57:03.791Z,38.49
2023-04-19T13:00:11.194Z,38.41
2023-04-19T13:03:18.840Z,37.56
2023-04-19T13:06:26.311Z,37.78
2023-04-19T13:09:35.545Z,40.00
2023-04-19T13:12:43.172Z,38.07
2023-04-19T13:15:50.824Z,39.86
2023-04-19T13:18:59.625Z,36.90
2023-04-19T13:22:07.529Z,37.61
2023-04-19T13:25:15.046Z,38.25
2023-04-19T13:28:23.854Z,39.30
2023-04-19T13:31:31.459Z,41.05
2023-04-19T13:34:39.682Z,40.86
2023-04-19T13:37:48.590Z,39.56
2023-04-19T13:40:56.718Z,39.56
2023-04-19T13:44:04.062Z,40.56
2023-04-19T13:47:11.330Z,41.38
2023-04-19T13:50:20.446Z,40.77
2023-04-19T13:53:27.482Z,41.17
2023-04-19T13:56:35.205Z,42.39
2023-04-19T13:59:44.232Z,42.39
2023-04-19T14:02:52.520Z,42.92
2023-04-19T14:06:00.180Z,43.30
2023-04-19T14:09:09.061Z,41.99
2023-04-19T14:12:16.953Z,42.90
2023-04-19T14:15:24.320Z,42.47
2023-04-19T14:18:33.594Z,41.58
2023-04-19T14:21:41.021Z,41.56
2023-04-19T14:24:48.534Z,43.08
2023-04-19T14:27:57.311Z,41.15
2023-04-19T14:31:05.387Z,39.97
2023-04-19T14:34:13.051Z,41.70
2023-04-19T14:37:20.603Z,41.29
2023-04-19T14:40:29.821Z,42.37
2023-04-19T14:43:37.206Z,40.52
2023-04-19T14:46:44.553Z,40.01
2023-04-19T14:49:53.920Z,40.64
2023-04-19T14:53:01.723Z,42.69
2023-04-19T14:56:09.252Z,41.17
2023-04-19T14:59:18.536Z,42.10
2023-04-19T15:02:25.807Z,41.90
2023-04-19T15:05:33.858Z,41.58
2023-04-19T15:08:43.318Z,41.64
2023-04-19T15:11:50.425Z,41.24
2023-04-19T15:14:58.275Z,40.25
2023-04-19T15:18:06.255Z,37.95
2023-04-19T15:21:15.366Z,39.58
2023-04-19T15:24:22.689Z,40.60
2023-04-19T15:27:30.339Z,41.14
2023-04-19T15:30:39.149Z,41.35
2023-04-19T15:33:46.918Z,40.94
2023-04-19T15:36:54.290Z,40.91
2023-04-19T15:40:03.386Z,40.37
2023-04-19T15:43:10.961Z,40.88
2023-04-19T15:46:19.220Z,40.60
2023-04-19T15:49:28.451Z,41.25
2023-04-19T15:52:36.076Z,41.45
2023-04-19T15:55:43.677Z,40.72
2023-04-19T15:58:51.440Z,38.68
2023-04-19T16:02:00.154Z,39.19
2023-04-19T16:05:08.382Z,38.17
2023-04-19T16:08:16.315Z,39.28
2023-04-19T16:11:24.961Z,37.45
2023-04-19T16:14:32.709Z,35.32
2023-04-19T16:17:40.688Z,36.55
2023-04-19T16:20:49.266Z,37.17
2023-04-19T16:23:57.060Z,36.99
2023-04-19T16:27:04.983Z,37.49
2023-04-19T16:30:13.675Z,37.70
2023-04-19T16:33:21.881Z,37.90
2023-04-19T16:36:29.511Z,38.11
2023-04-19T16:39:37.141Z,39.13
2023-04-19T16:42:46.533Z,38.33
2023-04-19T16:45:54.044Z,39.15
2023-04-19T16:49:01.432Z,38.65
2023-04-19T16:52:10.981Z,37.94
2023-04-19T16:55:18.629Z,39.37
2023-04-19T16:58:26.319Z,39.87
2023-04-19T17:01:35.648Z,39.06
2023-04-19T17:04:43.949Z,40.80
2023-04-19T17:07:52.571Z,40.08
2023-04-19T17:10:51.686Z,40.08
2023-04-19T17:13:59.665Z,39.90
2023-04-19T17:17:07.630Z,40.01
2023-04-19T17:20:14.790Z,38.91
2023-04-19T17:23:24.228Z,40.03
2023-04-19T17:26:31.932Z,39.62
2023-04-19T17:29:39.694Z,39.62
2023-04-19T17:32:49.951Z,40.14
2023-04-19T17:35:57.758Z,39.64
2023-04-19T17:39:05.061Z,40.05
2023-04-19T17:42:14.547Z,40.16
2023-04-19T17:45:22.050Z,39.54
2023-04-19T17:48:29.653Z,39.75
2023-04-19T17:51:38.884Z,39.97
2023-04-19T17:54:46.671Z,41.30
2023-04-19T17:57:54.282Z,41.30
2023-04-19T18:01:03.270Z,41.63
2023-04-19T18:04:11.504Z,40.81
2023-04-19T18:07:18.961Z,41.44
2023-04-19T18:10:26.822Z,41.95
2023-04-19T18:13:36.311Z,42.16
2023-04-19T18:16:43.886Z,42.57
2023-04-19T18:19:51.957Z,43.90
2023-04-19T18:23:01.438Z,43.38
2023-04-19T18:26:08.844Z,44.02
2023-04-19T18:29:17.022Z,46.09
2023-04-19T18:32:26.780Z,47.01
2023-04-19T18:35:34.345Z,47.63
2023-04-19T18:38:41.880Z,49.39
2023-04-19T18:41:50.952Z,49.80
2023-04-19T18:44:58.846Z,50.54
2023-04-19T18:48:06.423Z,50.67
2023-04-19T18:51:14.112Z,53.12
2023-04-19T18:54:22.973Z,54.90
2023-04-19T18:57:34.129Z,56.46
2023-04-19T19:00:32.066Z,58.64
2023-04-19T19:04:07.595Z,61.83
2023-04-19T19:06:46.343Z,64.87
2023-04-19T19:09:56.539Z,66.93
2023-04-19T19:12:55.674Z,67.47
2023-04-19T19:16:02.738Z,72.09
2023-04-19T19:19:10.077Z,77.21
2023-04-19T19:22:27.572Z,79.51
2023-04-19T19:25:23.549Z,81.20
2023-04-19T19:28:31.128Z,84.84
2023-04-19T19:31:38.719Z,85.25
2023-04-19T19:34:55.769Z,88.49
2023-04-19T19:37:53.314Z,88.18
2023-04-19T19:44:02.665Z,89.81
2023-04-19T19:47:10.999Z,90.43
2023-04-19T19:53:19.864Z,92.60
2023-04-19T19:56:28.132Z,91.67
2023-04-19T19:59:35.813Z,91.98
2023-04-19T20:02:54.857Z,92.13
2023-04-19T20:05:49.852Z,92.17
2023-04-19T20:08:58.421Z,93.62
2023-04-19T20:12:06.058Z,94.54
2023-04-19T20:15:14.713Z,95.89
2023-04-19T20:18:22.517Z,94.75
2023-04-19T20:21:29.786Z,94.69
2023-04-19T20:24:38.674Z,95.62
2023-04-19T20:27:46.161Z,95.78
2023-04-19T20:30:54.151Z,96.92
2023-04-19T20:34:03.045Z,96.41
2023-04-19T20:37:10.389Z,96.09
2023-04-19T20:40:18.011Z,97.23
2023-04-19T20:43:26.869Z,95.68
2023-04-19T20:46:34.271Z,94.85
2023-04-19T20:49:42.255Z,93.51
2023-04-19T20:52:49.687Z,91.44
2023-04-19T20:55:58.374Z,92.85
2023-04-19T20:59:05.712Z,93.26
2023-04-19T21:02:12.730Z,91.82
2023-04-19T21:05:21.842Z,92.02
2023-04-19T21:08:29.777Z,88.10
2023-04-19T21:11:37.098Z,88.51
2023-04-19T21:14:47.852Z,89.54
2023-04-19T21:17:46.293Z,89.54
2023-04-19T21:20:53.508Z,90.12
2023-04-19T21:24:02.300Z,89.54
2023-04-19T21:27:09.606Z,87.99
2023-04-19T21:30:17.329Z,87.17
2023-04-19T21:33:24.896Z,89.29
2023-04-19T21:36:33.819Z,87.17
2023-04-19T21:39:41.554Z,87.02
2023-04-19T21:42:48.867Z,84.03
2023-04-19T21:45:57.541Z,84.86
2023-04-19T21:49:05.013Z,85.78
2023-04-19T21:52:12.265Z,85.99
2023-04-19T21:55:21.011Z,86.10
2023-04-19T21:58:28.866Z,87.74
2023-04-19T22:01:35.916Z,87.74
2023-04-19T22:04:45.007Z,87.65
2023-04-19T22:07:52.659Z,88.06
2023-04-19T22:10:59.598Z,88.89
2023-04-19T22:14:07.291Z,88.71
2023-04-19T22:17:16.449Z,89.13
2023-04-19T22:20:23.426Z,88.71
2023-04-19T22:23:31.255Z,89.13
2023-04-19T22:26:40.095Z,89.13
2023-04-19T22:29:47.440Z,90.99
2023-04-19T22:32:55.343Z,90.78
2023-04-19T22:36:03.904Z,90.47
2023-04-19T22:39:10.835Z,92.64
2023-04-19T22:42:18.234Z,92.44
2023-04-19T22:45:27.112Z,92.74
2023-04-19T22:48:34.482Z,93.68
2023-04-19T22:51:42.068Z,93.37
2023-04-19T22:54:50.809Z,93.30
2023-04-19T22:57:58.316Z,93.93
2023-04-19T23:01:05.318Z,95.17
2023-04-19T23:04:13.088Z,96.03
2023-04-19T23:07:22.514Z,95.73
2023-04-19T23:10:29.495Z,96.08
2023-04-19T23:13:37.020Z,97.38
2023-04-19T23:16:46.227Z,97.69
2023-04-19T23:19:53.269Z,97.74
2023-04-19T23:23:01.209Z,98.35
2023-04-19T23:26:10.072Z,97.78
2023-04-19T23:29:17.702Z,97.99
2023-04-19T23:32:25.587Z,97.83
2023-04-19T23:35:34.393Z,98.24
2023-04-19T23:38:41.735Z,98.75
2023-04-19T23:41:49.478Z,99.27
2023-04-19T23:44:56.846Z,99.63
2023-04-19T23:48:05.769Z,99.94
2023-04-19T23:51:13.712Z,99.99
2023-04-19T23:54:21.238Z,99.99
2023-04-19T23:57:30.073Z,99.99
